sensor_id;sensor_type;location;lat;lon;timestamp;pressure;altitude;pressure_sealevel;temperature;humidity
23318;BME280;11831;55.918;37.746;2022-08-19T00:01:52;99970.34;;;23.45;0.00
23318;BME280;11831;55.918;37.746;2022-08-19T00:04:20;99963.37;;;23.53;0.00
23318;BME280;11831;55.918;37.746;2022-08-19T00:06:46;99970.13;;;23.42;0.00
23318;BME280;11831;55.918;37.746;2022-08-19T00:09:13;99976.31;;;23.47;0.00
23318;BME280;11831;55.918;37.746;2022-08-19T00:11:40;99973.81;;;23.18;0.00
23318;BME280;11831;55.918;37.746;2022-08-19T00:14:07;99982.56;;;23.34;0.00
23318;BME280;11831;55.918;37.746;2022-08-19T00:16:35;99980.66;;;23.48;0.00
23318;BME280;11831;55.918;37.746;2022-08-19T00:19:02;99981.97;;;23.51;0.00
23318;BME280;11831;55.918;37.746;2022-08-19T00:21:28;99982.97;;;23.41;0.00
23318;BME280;11831;55.918;37.746;2022-08-19T00:23:54;99985.19;;;23.39;0.00
23318;BME280;11831;55.918;37.746;2022-08-19T00:26:24;99986.03;;;23.21;0.00
23318;BME280;11831;55.918;37.746;2022-08-19T00:28:50;99990.34;;;23.41;0.00
23318;BME280;11831;55.918;37.746;2022-08-19T00:31:16;99984.78;;;23.32;0.00
23318;BME280;11831;55.918;37.746;2022-08-19T00:33:42;99989.34;;;23.18;0.00
23318;BME280;11831;55.918;37.746;2022-08-19T00:36:09;99994.09;;;23.12;0.00
23318;BME280;11831;55.918;37.746;2022-08-19T00:38:35;99998.22;;;23.10;0.00
23318;BME280;11831;55.918;37.746;2022-08-19T00:41:03;99991.28;;;23.17;0.00
23318;BME280;11831;55.918;37.746;2022-08-19T00:43:30;99985.78;;;23.04;0.00
23318;BME280;11831;55.918;37.746;2022-08-19T00:45:56;99994.34;;;22.97;0.00
23318;BME280;11831;55.918;37.746;2022-08-19T00:48:22;99988.81;;;23.02;0.00
23318;BME280;11831;55.918;37.746;2022-08-19T00:50:49;99992.34;;;22.84;0.00
23318;BME280;11831;55.918;37.746;2022-08-19T00:53:17;99978.63;;;22.70;0.00
23318;BME280;11831;55.918;37.746;2022-08-19T00:55:45;99994.31;;;22.78;0.00
23318;BME280;11831;55.918;37.746;2022-08-19T00:58:15;99999.66;;;22.88;0.00
23318;BME280;11831;55.918;37.746;2022-08-19T01:00:41;99997.28;;;23.01;0.00
23318;BME280;11831;55.918;37.746;2022-08-19T01:03:08;99996.47;;;23.00;0.00
23318;BME280;11831;55.918;37.746;2022-08-19T01:05:34;99993.66;;;22.68;0.00
23318;BME280;11831;55.918;37.746;2022-08-19T01:08:01;99992.09;;;22.61;0.00
23318;BME280;11831;55.918;37.746;2022-08-19T01:10:29;99992.16;;;22.56;0.00
23318;BME280;11831;55.918;37.746;2022-08-19T01:12:57;100000.50;;;22.65;0.00
23318;BME280;11831;55.918;37.746;2022-08-19T01:15:25;100009.31;;;22.81;0.00
23318;BME280;11831;55.918;37.746;2022-08-19T01:17:52;100014.97;;;22.84;0.00
23318;BME280;11831;55.918;37.746;2022-08-19T01:20:20;100020.25;;;22.95;0.00
23318;BME280;11831;55.918;37.746;2022-08-19T01:25:16;100027.28;;;22.82;0.00
23318;BME280;11831;55.918;37.746;2022-08-19T01:27:44;100030.22;;;22.85;0.00
23318;BME280;11831;55.918;37.746;2022-08-19T01:30:15;100029.41;;;22.85;0.00
23318;BME280;11831;55.918;37.746;2022-08-19T01:32:41;100025.28;;;22.87;0.00
23318;BME280;11831;55.918;37.746;2022-08-19T01:35:09;100022.16;;;22.75;0.00
23318;BME280;11831;55.918;37.746;2022-08-19T01:37:42;100019.84;;;22.63;0.00
23318;BME280;11831;55.918;37.746;2022-08-19T01:40:09;100031.13;;;22.57;0.00
23318;BME280;11831;55.918;37.746;2022-08-19T01:42:36;100024.56;;;22.58;0.00
23318;BME280;11831;55.918;37.746;2022-08-19T01:45:03;100018.94;;;22.73;0.00
23318;BME280;11831;55.918;37.746;2022-08-19T01:47:29;100027.03;;;22.78;0.00
23318;BME280;11831;55.918;37.746;2022-08-19T01:49:55;100012.22;;;22.66;0.00
23318;BME280;11831;55.918;37.746;2022-08-19T01:52:21;100017.34;;;22.48;0.00
23318;BME280;11831;55.918;37.746;2022-08-19T01:54:47;100016.44;;;22.34;0.00
23318;BME280;11831;55.918;37.746;2022-08-19T01:57:13;100009.13;;;22.29;0.00
23318;BME280;11831;55.918;37.746;2022-08-19T01:59:40;100019.28;;;22.24;0.00
23318;BME280;11831;55.918;37.746;2022-08-19T02:02:06;100018.19;;;22.25;0.00
23318;BME280;11831;55.918;37.746;2022-08-19T02:04:36;100016.41;;;22.39;0.00
23318;BME280;11831;55.918;37.746;2022-08-19T02:07:04;100022.00;;;22.24;0.00
23318;BME280;11831;55.918;37.746;2022-08-19T02:09:30;100016.75;;;22.09;0.00
23318;BME280;11831;55.918;37.746;2022-08-19T02:11:57;100024.44;;;22.25;0.00
23318;BME280;11831;55.918;37.746;2022-08-19T02:14:24;100028.34;;;22.19;0.00
23318;BME280;11831;55.918;37.746;2022-08-19T02:16:50;100017.75;;;22.18;0.00
23318;BME280;11831;55.918;37.746;2022-08-19T02:19:16;100025.16;;;22.12;0.00
23318;BME280;11831;55.918;37.746;2022-08-19T02:21:42;100020.47;;;21.89;0.00
23318;BME280;11831;55.918;37.746;2022-08-19T02:24:09;100025.12;;;21.88;0.00
23318;BME280;11831;55.918;37.746;2022-08-19T02:26:35;100022.69;;;21.87;0.00
23318;BME280;11831;55.918;37.746;2022-08-19T02:29:02;100023.91;;;22.05;0.00
23318;BME280;11831;55.918;37.746;2022-08-19T02:31:28;100026.84;;;22.03;0.00
23318;BME280;11831;55.918;37.746;2022-08-19T02:33:54;100026.03;;;22.02;0.00
23318;BME280;11831;55.918;37.746;2022-08-19T02:36:21;100030.16;;;21.76;0.00
23318;BME280;11831;55.918;37.746;2022-08-19T02:38:48;100047.41;;;21.90;0.00
23318;BME280;11831;55.918;37.746;2022-08-19T02:41:15;100042.53;;;21.87;0.00
23318;BME280;11831;55.918;37.746;2022-08-19T02:43:42;100047.13;;;21.92;0.00
23318;BME280;11831;55.918;37.746;2022-08-19T02:48:43;100052.97;;;21.80;0.00
23318;BME280;11831;55.918;37.746;2022-08-19T02:51:14;100058.13;;;21.82;0.00
23318;BME280;11831;55.918;37.746;2022-08-19T02:53:40;100055.13;;;21.83;0.00
23318;BME280;11831;55.918;37.746;2022-08-19T02:56:07;100064.97;;;22.08;0.00
23318;BME280;11831;55.918;37.746;2022-08-19T02:58:33;100065.72;;;22.14;0.00
23318;BME280;11831;55.918;37.746;2022-08-19T03:00:59;100052.81;;;21.95;0.00
23318;BME280;11831;55.918;37.746;2022-08-19T03:03:25;100052.75;;;22.00;0.00
23318;BME280;11831;55.918;37.746;2022-08-19T03:06:01;100050.41;;;21.89;0.00
23318;BME280;11831;55.918;37.746;2022-08-19T03:08:28;100053.84;;;21.99;0.00
23318;BME280;11831;55.918;37.746;2022-08-19T03:10:54;100055.47;;;21.77;0.00
23318;BME280;11831;55.918;37.746;2022-08-19T03:13:20;100051.81;;;21.86;0.00
23318;BME280;11831;55.918;37.746;2022-08-19T03:15:47;100053.09;;;21.65;0.00
23318;BME280;11831;55.918;37.746;2022-08-19T03:18:13;100054.13;;;21.74;0.00
23318;BME280;11831;55.918;37.746;2022-08-19T03:20:43;100047.25;;;21.82;0.00
23318;BME280;11831;55.918;37.746;2022-08-19T03:23:10;100049.91;;;21.87;0.00
23318;BME280;11831;55.918;37.746;2022-08-19T03:25:39;100049.72;;;21.78;0.00
23318;BME280;11831;55.918;37.746;2022-08-19T03:28:06;100057.37;;;21.76;0.00
23318;BME280;11831;55.918;37.746;2022-08-19T03:30:33;100064.25;;;21.92;0.00
23318;BME280;11831;55.918;37.746;2022-08-19T03:32:59;100056.34;;;21.96;0.00
23318;BME280;11831;55.918;37.746;2022-08-19T03:35:25;100050.47;;;22.13;0.00
23318;BME280;11831;55.918;37.746;2022-08-19T03:37:51;100059.22;;;22.10;0.00
23318;BME280;11831;55.918;37.746;2022-08-19T03:40:18;100056.03;;;22.26;0.00
23318;BME280;11831;55.918;37.746;2022-08-19T03:42:44;100053.38;;;22.21;0.00
23318;BME280;11831;55.918;37.746;2022-08-19T03:45:11;100050.28;;;22.28;0.00
23318;BME280;11831;55.918;37.746;2022-08-19T03:47:38;100059.09;;;22.44;0.00
23318;BME280;11831;55.918;37.746;2022-08-19T03:50:04;100055.84;;;22.66;0.00
23318;BME280;11831;55.918;37.746;2022-08-19T03:52:30;100053.81;;;22.52;0.00
23318;BME280;11831;55.918;37.746;2022-08-19T03:54:56;100059.12;;;22.62;0.00
23318;BME280;11831;55.918;37.746;2022-08-19T03:57:22;100061.31;;;22.60;0.00
23318;BME280;11831;55.918;37.746;2022-08-19T03:59:48;100063.66;;;22.72;0.00
23318;BME280;11831;55.918;37.746;2022-08-19T04:02:14;100068.28;;;22.72;0.00
23318;BME280;11831;55.918;37.746;2022-08-19T04:04:41;100055.19;;;22.74;0.00
23318;BME280;11831;55.918;37.746;2022-08-19T04:07:09;100063.56;;;22.77;0.00
23318;BME280;11831;55.918;37.746;2022-08-19T04:09:35;100055.97;;;22.98;0.00
23318;BME280;11831;55.918;37.746;2022-08-19T04:12:02;100054.59;;;22.77;0.00
23318;BME280;11831;55.918;37.746;2022-08-19T04:14:31;100060.00;;;22.82;0.00
23318;BME280;11831;55.918;37.746;2022-08-19T04:16:58;100064.88;;;23.04;0.00
23318;BME280;11831;55.918;37.746;2022-08-19T04:19:24;100063.22;;;22.84;0.00
23318;BME280;11831;55.918;37.746;2022-08-19T04:21:51;100075.16;;;22.88;0.00
23318;BME280;11831;55.918;37.746;2022-08-19T04:24:18;100067.37;;;23.00;0.00
23318;BME280;11831;55.918;37.746;2022-08-19T04:26:45;100073.66;;;23.01;0.00
23318;BME280;11831;55.918;37.746;2022-08-19T04:29:15;100072.66;;;22.91;0.00
23318;BME280;11831;55.918;37.746;2022-08-19T04:31:42;100068.25;;;22.96;0.00
23318;BME280;11831;55.918;37.746;2022-08-19T04:34:09;100066.41;;;23.10;0.00
23318;BME280;11831;55.918;37.746;2022-08-19T04:36:36;100074.44;;;23.20;0.00
23318;BME280;11831;55.918;37.746;2022-08-19T04:39:04;100079.38;;;23.18;0.00
23318;BME280;11831;55.918;37.746;2022-08-19T04:41:31;100080.19;;;23.18;0.00
23318;BME280;11831;55.918;37.746;2022-08-19T04:44:15;100077.22;;;23.34;0.00
23318;BME280;11831;55.918;37.746;2022-08-19T04:46:47;100067.16;;;23.48;0.00
23318;BME280;11831;55.918;37.746;2022-08-19T04:49:14;100076.25;;;23.62;0.00
23318;BME280;11831;55.918;37.746;2022-08-19T04:51:40;100071.00;;;23.47;0.00
23318;BME280;11831;55.918;37.746;2022-08-19T04:54:08;100080.03;;;23.80;0.00
23318;BME280;11831;55.918;37.746;2022-08-19T04:56:33;100076.31;;;23.57;0.00
23318;BME280;11831;55.918;37.746;2022-08-19T04:59:00;100080.94;;;23.75;0.00
23318;BME280;11831;55.918;37.746;2022-08-19T05:01:30;100083.31;;;23.96;0.00
23318;BME280;11831;55.918;37.746;2022-08-19T05:03:58;100084.34;;;24.27;0.00
23318;BME280;11831;55.918;37.746;2022-08-19T05:06:24;100083.91;;;24.06;0.00
23318;BME280;11831;55.918;37.746;2022-08-19T05:08:51;100084.31;;;24.13;0.00
23318;BME280;11831;55.918;37.746;2022-08-19T05:11:21;100086.88;;;24.65;0.00
23318;BME280;11831;55.918;37.746;2022-08-19T05:13:47;100074.81;;;24.80;0.00
23318;BME280;11831;55.918;37.746;2022-08-19T05:16:15;100081.91;;;24.81;0.00
23318;BME280;11831;55.918;37.746;2022-08-19T05:18:41;100085.38;;;24.59;0.00
23318;BME280;11831;55.918;37.746;2022-08-19T05:21:26;100083.00;;;24.93;0.00
23318;BME280;11831;55.918;37.746;2022-08-19T05:24:11;100076.38;;;25.08;0.00
23318;BME280;11831;55.918;37.746;2022-08-19T05:26:39;100068.75;;;24.83;0.00
23318;BME280;11831;55.918;37.746;2022-08-19T05:29:05;100061.91;;;25.07;0.00
23318;BME280;11831;55.918;37.746;2022-08-19T05:31:33;100073.66;;;25.08;0.00
23318;BME280;11831;55.918;37.746;2022-08-19T05:33:59;100062.59;;;25.35;0.00
23318;BME280;11831;55.918;37.746;2022-08-19T05:36:25;100070.97;;;24.81;0.00
23318;BME280;11831;55.918;37.746;2022-08-19T05:38:52;100071.56;;;24.77;0.00
23318;BME280;11831;55.918;37.746;2022-08-19T05:41:19;100076.06;;;25.10;0.00
23318;BME280;11831;55.918;37.746;2022-08-19T05:43:46;100069.25;;;25.21;0.00
23318;BME280;11831;55.918;37.746;2022-08-19T05:46:18;100079.97;;;25.31;0.00
23318;BME280;11831;55.918;37.746;2022-08-19T05:48:45;100076.28;;;25.13;0.00
23318;BME280;11831;55.918;37.746;2022-08-19T05:51:11;100074.56;;;25.17;0.00
23318;BME280;11831;55.918;37.746;2022-08-19T05:53:37;100073.56;;;25.35;0.00
23318;BME280;11831;55.918;37.746;2022-08-19T05:56:07;100079.72;;;25.19;0.00
23318;BME280;11831;55.918;37.746;2022-08-19T05:58:34;100069.62;;;25.28;0.00
23318;BME280;11831;55.918;37.746;2022-08-19T06:01:00;100081.81;;;25.22;0.00
23318;BME280;11831;55.918;37.746;2022-08-19T06:03:30;100079.34;;;25.34;0.00
23318;BME280;11831;55.918;37.746;2022-08-19T06:05:56;100073.53;;;25.72;0.00
23318;BME280;11831;55.918;37.746;2022-08-19T06:08:25;100086.78;;;25.64;0.00
23318;BME280;11831;55.918;37.746;2022-08-19T06:10:52;100087.31;;;25.89;0.00
23318;BME280;11831;55.918;37.746;2022-08-19T06:13:19;100080.72;;;25.67;0.00
23318;BME280;11831;55.918;37.746;2022-08-19T06:15:45;100083.06;;;25.60;0.00
23318;BME280;11831;55.918;37.746;2022-08-19T06:18:13;100077.31;;;25.93;0.00
23318;BME280;11831;55.918;37.746;2022-08-19T06:20:39;100086.50;;;25.88;0.00
23318;BME280;11831;55.918;37.746;2022-08-19T06:23:05;100085.19;;;25.86;0.00
23318;BME280;11831;55.918;37.746;2022-08-19T06:25:32;100086.59;;;26.37;0.00
23318;BME280;11831;55.918;37.746;2022-08-19T06:27:58;100092.13;;;26.23;0.00
23318;BME280;11831;55.918;37.746;2022-08-19T06:30:24;100091.37;;;26.71;0.00
23318;BME280;11831;55.918;37.746;2022-08-19T06:32:50;100088.88;;;26.43;0.00
23318;BME280;11831;55.918;37.746;2022-08-19T06:35:16;100093.38;;;26.48;0.00
23318;BME280;11831;55.918;37.746;2022-08-19T06:37:42;100090.88;;;26.77;0.00
23318;BME280;11831;55.918;37.746;2022-08-19T06:40:08;100091.41;;;26.97;0.00
23318;BME280;11831;55.918;37.746;2022-08-19T06:42:36;100093.22;;;27.10;0.00
23318;BME280;11831;55.918;37.746;2022-08-19T06:45:04;100097.59;;;27.28;0.00
23318;BME280;11831;55.918;37.746;2022-08-19T06:47:31;100102.91;;;27.68;0.00
23318;BME280;11831;55.918;37.746;2022-08-19T06:49:58;100094.50;;;27.73;0.00
23318;BME280;11831;55.918;37.746;2022-08-19T06:52:28;100091.06;;;27.93;0.00
23318;BME280;11831;55.918;37.746;2022-08-19T06:54:54;100090.69;;;28.03;0.00
23318;BME280;11831;55.918;37.746;2022-08-19T06:57:23;100083.94;;;28.39;0.00
23318;BME280;11831;55.918;37.746;2022-08-19T06:59:49;100085.69;;;27.97;0.00
23318;BME280;11831;55.918;37.746;2022-08-19T07:02:16;100087.34;;;28.36;0.00
23318;BME280;11831;55.918;37.746;2022-08-19T07:04:42;100094.87;;;28.77;0.00
23318;BME280;11831;55.918;37.746;2022-08-19T07:07:09;100096.66;;;28.82;0.00
23318;BME280;11831;55.918;37.746;2022-08-19T07:09:36;100088.75;;;28.42;0.00
23318;BME280;11831;55.918;37.746;2022-08-19T07:12:03;100087.75;;;28.08;0.00
23318;BME280;11831;55.918;37.746;2022-08-19T07:14:29;100084.97;;;28.26;0.00
23318;BME280;11831;55.918;37.746;2022-08-19T07:16:56;100093.56;;;28.54;0.00
23318;BME280;11831;55.918;37.746;2022-08-19T07:19:23;100086.97;;;28.46;0.00
23318;BME280;11831;55.918;37.746;2022-08-19T07:21:51;100097.56;;;28.94;0.00
23318;BME280;11831;55.918;37.746;2022-08-19T07:24:19;100076.69;;;28.64;0.00
23318;BME280;11831;55.918;37.746;2022-08-19T07:26:45;100090.44;;;28.34;0.00
23318;BME280;11831;55.918;37.746;2022-08-19T07:29:12;100100.16;;;28.61;0.00
23318;BME280;11831;55.918;37.746;2022-08-19T07:31:38;100101.63;;;28.59;0.00
23318;BME280;11831;55.918;37.746;2022-08-19T07:34:05;100096.59;;;28.31;0.00
23318;BME280;11831;55.918;37.746;2022-08-19T07:36:35;100103.78;;;28.53;0.00
23318;BME280;11831;55.918;37.746;2022-08-19T07:39:03;100099.22;;;28.19;0.00
23318;BME280;11831;55.918;37.746;2022-08-19T07:41:30;100098.47;;;28.39;0.00
23318;BME280;11831;55.918;37.746;2022-08-19T07:43:57;100086.94;;;28.17;0.00
23318;BME280;11831;55.918;37.746;2022-08-19T07:46:24;100081.78;;;28.06;0.00
23318;BME280;11831;55.918;37.746;2022-08-19T07:48:50;100089.31;;;27.54;0.00
23318;BME280;11831;55.918;37.746;2022-08-19T07:51:18;100110.28;;;28.40;0.00
23318;BME280;11831;55.918;37.746;2022-08-19T07:53:45;100100.06;;;28.49;0.00
23318;BME280;11831;55.918;37.746;2022-08-19T07:56:12;100107.56;;;29.20;0.00
23318;BME280;11831;55.918;37.746;2022-08-19T07:58:39;100105.81;;;28.94;0.00
23318;BME280;11831;55.918;37.746;2022-08-19T08:01:06;100106.03;;;29.10;0.00
23318;BME280;11831;55.918;37.746;2022-08-19T08:03:32;100113.19;;;29.23;0.00
23318;BME280;11831;55.918;37.746;2022-08-19T08:06:17;100113.06;;;28.99;0.00
23318;BME280;11831;55.918;37.746;2022-08-19T08:09:03;100116.88;;;29.06;0.00
23318;BME280;11831;55.918;37.746;2022-08-19T08:11:43;100105.88;;;28.86;0.00
23318;BME280;11831;55.918;37.746;2022-08-19T08:14:15;100116.06;;;29.06;0.00
23318;BME280;11831;55.918;37.746;2022-08-19T08:16:41;100123.13;;;28.95;0.00
23318;BME280;11831;55.918;37.746;2022-08-19T08:19:09;100114.59;;;29.71;0.00
23318;BME280;11831;55.918;37.746;2022-08-19T08:21:35;100125.84;;;29.45;0.00
23318;BME280;11831;55.918;37.746;2022-08-19T08:24:01;100133.56;;;29.52;0.00
23318;BME280;11831;55.918;37.746;2022-08-19T08:26:27;100119.38;;;29.41;0.00
23318;BME280;11831;55.918;37.746;2022-08-19T08:28:53;100128.63;;;29.36;0.00
23318;BME280;11831;55.918;37.746;2022-08-19T08:31:20;100133.28;;;29.65;0.00
23318;BME280;11831;55.918;37.746;2022-08-19T08:33:46;100133.50;;;29.40;0.00
23318;BME280;11831;55.918;37.746;2022-08-19T08:36:12;100130.19;;;29.25;0.00
23318;BME280;11831;55.918;37.746;2022-08-19T08:38:42;100128.28;;;28.96;0.00
23318;BME280;11831;55.918;37.746;2022-08-19T08:41:17;100125.94;;;29.07;0.00
23318;BME280;11831;55.918;37.746;2022-08-19T08:43:48;100142.34;;;29.24;0.00
23318;BME280;11831;55.918;37.746;2022-08-19T08:46:15;100116.75;;;29.24;0.00
23318;BME280;11831;55.918;37.746;2022-08-19T08:48:50;100137.03;;;29.19;0.00
23318;BME280;11831;55.918;37.746;2022-08-19T08:51:20;100127.09;;;29.27;0.00
23318;BME280;11831;55.918;37.746;2022-08-19T08:53:48;100128.28;;;29.38;0.00
23318;BME280;11831;55.918;37.746;2022-08-19T08:56:15;100133.53;;;28.89;0.00
23318;BME280;11831;55.918;37.746;2022-08-19T08:58:44;100132.22;;;29.58;0.00
23318;BME280;11831;55.918;37.746;2022-08-19T09:01:11;100125.63;;;29.71;0.00
23318;BME280;11831;55.918;37.746;2022-08-19T09:03:38;100132.19;;;29.79;0.00
23318;BME280;11831;55.918;37.746;2022-08-19T09:06:14;100120.34;;;29.78;0.00
23318;BME280;11831;55.918;37.746;2022-08-19T09:08:59;100124.53;;;29.63;0.00
23318;BME280;11831;55.918;37.746;2022-08-19T09:14:15;100117.22;;;29.26;0.00
23318;BME280;11831;55.918;37.746;2022-08-19T09:16:45;100124.38;;;29.48;0.00
23318;BME280;11831;55.918;37.746;2022-08-19T09:19:11;100123.34;;;29.31;0.00
23318;BME280;11831;55.918;37.746;2022-08-19T09:21:38;100130.03;;;29.63;0.00
23318;BME280;11831;55.918;37.746;2022-08-19T09:24:04;100122.34;;;29.57;0.00
23318;BME280;11831;55.918;37.746;2022-08-19T09:26:31;100121.28;;;29.82;0.00
23318;BME280;11831;55.918;37.746;2022-08-19T09:28:58;100123.31;;;29.73;0.00
23318;BME280;11831;55.918;37.746;2022-08-19T09:31:26;100121.84;;;30.21;0.00
23318;BME280;11831;55.918;37.746;2022-08-19T09:33:53;100119.91;;;30.46;0.00
23318;BME280;11831;55.918;37.746;2022-08-19T09:36:22;100109.94;;;30.78;0.00
23318;BME280;11831;55.918;37.746;2022-08-19T09:38:50;100112.56;;;30.50;0.00
23318;BME280;11831;55.918;37.746;2022-08-19T09:41:18;100129.56;;;30.40;0.00
23318;BME280;11831;55.918;37.746;2022-08-19T09:43:45;100124.72;;;30.24;0.00
23318;BME280;11831;55.918;37.746;2022-08-19T09:46:12;100138.78;;;30.80;0.00
23318;BME280;11831;55.918;37.746;2022-08-19T09:48:39;100129.00;;;30.46;0.00
23318;BME280;11831;55.918;37.746;2022-08-19T09:51:10;100127.63;;;30.40;0.00
23318;BME280;11831;55.918;37.746;2022-08-19T09:53:37;100133.59;;;30.54;0.00
23318;BME280;11831;55.918;37.746;2022-08-19T09:56:04;100142.69;;;30.79;0.00
23318;BME280;11831;55.918;37.746;2022-08-19T09:58:31;100129.63;;;30.64;0.00
23318;BME280;11831;55.918;37.746;2022-08-19T10:00:57;100130.03;;;29.96;0.00
23318;BME280;11831;55.918;37.746;2022-08-19T10:03:25;100143.44;;;29.74;0.00
23318;BME280;11831;55.918;37.746;2022-08-19T10:05:52;100150.59;;;30.56;0.00
23318;BME280;11831;55.918;37.746;2022-08-19T10:08:23;100142.28;;;30.20;0.00
23318;BME280;11831;55.918;37.746;2022-08-19T10:10:50;100137.62;;;30.81;0.00
23318;BME280;11831;55.918;37.746;2022-08-19T10:13:20;100136.00;;;29.98;0.00
23318;BME280;11831;55.918;37.746;2022-08-19T10:15:49;100141.09;;;30.78;0.00
23318;BME280;11831;55.918;37.746;2022-08-19T10:18:18;100124.75;;;30.98;0.00
23318;BME280;11831;55.918;37.746;2022-08-19T10:20:45;100128.59;;;31.21;0.00
23318;BME280;11831;55.918;37.746;2022-08-19T10:23:12;100136.94;;;30.84;0.00
23318;BME280;11831;55.918;37.746;2022-08-19T10:25:38;100125.66;;;30.41;0.00
23318;BME280;11831;55.918;37.746;2022-08-19T10:28:04;100143.38;;;30.88;0.00
23318;BME280;11831;55.918;37.746;2022-08-19T10:30:31;100152.72;;;30.72;0.00
23318;BME280;11831;55.918;37.746;2022-08-19T10:32:57;100148.81;;;30.73;0.00
23318;BME280;11831;55.918;37.746;2022-08-19T10:35:23;100145.13;;;30.69;0.00
23318;BME280;11831;55.918;37.746;2022-08-19T10:37:55;100141.22;;;30.70;0.00
23318;BME280;11831;55.918;37.746;2022-08-19T10:40:25;100152.94;;;30.79;0.00
23318;BME280;11831;55.918;37.746;2022-08-19T10:42:52;100158.94;;;30.69;0.00
23318;BME280;11831;55.918;37.746;2022-08-19T10:45:18;100139.56;;;30.44;0.00
23318;BME280;11831;55.918;37.746;2022-08-19T10:47:44;100159.00;;;31.09;0.00
23318;BME280;11831;55.918;37.746;2022-08-19T10:50:12;100146.81;;;30.85;0.00
23318;BME280;11831;55.918;37.746;2022-08-19T10:52:57;100159.09;;;31.12;0.00
23318;BME280;11831;55.918;37.746;2022-08-19T10:55:23;100159.37;;;30.95;0.00
23318;BME280;11831;55.918;37.746;2022-08-19T10:58:14;100155.69;;;31.56;0.00
23318;BME280;11831;55.918;37.746;2022-08-19T11:00:41;100158.75;;;31.66;0.00
23318;BME280;11831;55.918;37.746;2022-08-19T11:03:09;100148.47;;;31.39;0.00
23318;BME280;11831;55.918;37.746;2022-08-19T11:05:35;100162.75;;;31.69;0.00
23318;BME280;11831;55.918;37.746;2022-08-19T11:08:03;100166.94;;;32.34;0.00
23318;BME280;11831;55.918;37.746;2022-08-19T11:10:29;100154.00;;;32.38;0.00
23318;BME280;11831;55.918;37.746;2022-08-19T11:12:55;100152.78;;;33.02;0.00
23318;BME280;11831;55.918;37.746;2022-08-19T11:15:21;100151.38;;;34.05;0.00
23318;BME280;11831;55.918;37.746;2022-08-19T11:17:47;100159.84;;;34.35;40.88
23318;BME280;11831;55.918;37.746;2022-08-19T11:20:14;100154.34;;;34.62;41.66
23318;BME280;11831;55.918;37.746;2022-08-19T11:22:40;100148.78;;;34.16;38.27
23318;BME280;11831;55.918;37.746;2022-08-19T11:25:07;100163.06;;;35.13;34.37
23318;BME280;11831;55.918;37.746;2022-08-19T11:27:33;100153.63;;;35.51;33.35
23318;BME280;11831;55.918;37.746;2022-08-19T11:30:03;100152.37;;;35.78;32.30
23318;BME280;11831;55.918;37.746;2022-08-19T11:32:29;100151.16;;;36.54;31.75
23318;BME280;11831;55.918;37.746;2022-08-19T11:34:55;100149.41;;;36.86;31.14
23318;BME280;11831;55.918;37.746;2022-08-19T11:37:21;100150.06;;;36.69;30.22
23318;BME280;11831;55.918;37.746;2022-08-19T11:39:47;100152.75;;;37.06;29.77
23318;BME280;11831;55.918;37.746;2022-08-19T11:42:13;100136.75;;;36.00;30.39
23318;BME280;11831;55.918;37.746;2022-08-19T11:44:58;100148.34;;;35.72;30.71
23318;BME280;11831;55.918;37.746;2022-08-19T11:47:24;100141.78;;;35.54;30.96
23318;BME280;11831;55.918;37.746;2022-08-19T11:49:50;100153.88;;;35.69;30.99
23318;BME280;11831;55.918;37.746;2022-08-19T11:52:19;100142.37;;;36.07;30.62
23318;BME280;11831;55.918;37.746;2022-08-19T11:54:45;100147.66;;;36.20;30.58
23318;BME280;11831;55.918;37.746;2022-08-19T11:57:11;100143.59;;;36.54;31.57
23318;BME280;11831;55.918;37.746;2022-08-19T11:59:37;100146.44;;;36.17;31.04
23318;BME280;11831;55.918;37.746;2022-08-19T12:02:03;100154.66;;;36.98;30.96
23318;BME280;11831;55.918;37.746;2022-08-19T12:04:29;100150.25;;;36.43;31.29
23318;BME280;11831;55.918;37.746;2022-08-19T12:06:55;100145.72;;;36.27;32.33
23318;BME280;11831;55.918;37.746;2022-08-19T12:09:21;100151.38;;;36.34;33.21
23318;BME280;11831;55.918;37.746;2022-08-19T12:11:47;100143.03;;;35.60;35.20
23318;BME280;11831;55.918;37.746;2022-08-19T12:14:13;100155.47;;;35.70;36.56
23318;BME280;11831;55.918;37.746;2022-08-19T12:16:40;100150.59;;;35.60;36.64
23318;BME280;11831;55.918;37.746;2022-08-19T12:19:07;100146.94;;;35.52;38.21
23318;BME280;11831;55.918;37.746;2022-08-19T12:21:34;100147.34;;;35.24;38.57
23318;BME280;11831;55.918;37.746;2022-08-19T12:24:02;100147.25;;;34.64;39.53
23318;BME280;11831;55.918;37.746;2022-08-19T12:26:29;100144.28;;;34.80;40.21
23318;BME280;11831;55.918;37.746;2022-08-19T12:28:57;100153.31;;;34.47;40.46
23318;BME280;11831;55.918;37.746;2022-08-19T12:31:25;100136.41;;;34.10;41.46
23318;BME280;11831;55.918;37.746;2022-08-19T12:33:51;100146.81;;;34.62;40.87
23318;BME280;11831;55.918;37.746;2022-08-19T12:36:18;100148.19;;;34.49;41.51
23318;BME280;11831;55.918;37.746;2022-08-19T12:38:44;100152.37;;;34.39;41.28
23318;BME280;11831;55.918;37.746;2022-08-19T12:41:11;100146.34;;;35.09;40.93
23318;BME280;11831;55.918;37.746;2022-08-19T12:43:38;100145.87;;;35.04;39.89
23318;BME280;11831;55.918;37.746;2022-08-19T12:46:04;100131.87;;;35.90;39.64
23318;BME280;11831;55.918;37.746;2022-08-19T12:48:31;100123.78;;;35.82;39.94
23318;BME280;11831;55.918;37.746;2022-08-19T12:50:58;100121.72;;;36.56;39.64
23318;BME280;11831;55.918;37.746;2022-08-19T12:53:24;100121.66;;;37.04;38.62
23318;BME280;11831;55.918;37.746;2022-08-19T12:55:57;100123.88;;;36.77;39.48
23318;BME280;11831;55.918;37.746;2022-08-19T12:58:23;100133.88;;;37.65;38.53
23318;BME280;11831;55.918;37.746;2022-08-19T13:00:49;100138.78;;;37.97;38.12